createdAt,value
2018-05-25T00:01:54.146Z,1.20
2018-05-25T00:04:21.490Z,1.40
2018-05-25T00:06:48.779Z,2.27
2018-05-25T00:09:16.068Z,1.37
2018-05-25T00:11:43.444Z,3.43
2018-05-25T00:14:10.742Z,1.60
2018-05-25T00:16:38.059Z,1.67
2018-05-25T00:19:05.359Z,1.23
2018-05-25T00:21:32.674Z,1.67
2018-05-25T00:23:59.971Z,1.87
2018-05-25T00:26:27.364Z,1.23
2018-05-25T00:28:54.660Z,1.77
2018-05-25T00:31:22.075Z,1.80
2018-05-25T00:33:49.364Z,1.60
2018-05-25T00:36:16.682Z,2.17
2018-05-25T00:38:44.041Z,1.47
2018-05-25T00:41:11.352Z,1.70
2018-05-25T00:43:38.652Z,1.23
2018-05-25T00:46:05.984Z,1.47
2018-05-25T00:48:33.332Z,2.37
2018-05-25T00:51:00.712Z,1.43
2018-05-25T00:53:28.006Z,1.93
2018-05-25T00:55:55.341Z,1.90
2018-05-25T00:58:22.630Z,2.40
2018-05-25T01:00:49.919Z,1.83
2018-05-25T01:03:17.224Z,1.80
2018-05-25T01:05:44.547Z,1.90
2018-05-25T01:08:11.956Z,2.30
2018-05-25T01:10:39.338Z,1.30
2018-05-25T01:13:06.667Z,2.13
2018-05-25T01:15:33.958Z,1.17
2018-05-25T01:18:01.292Z,1.97
2018-05-25T01:20:28.872Z,1.13
2018-05-25T01:22:56.190Z,1.37
2018-05-25T01:25:23.583Z,1.30
2018-05-25T01:27:50.939Z,2.30
2018-05-25T01:30:18.291Z,1.23
2018-05-25T01:32:45.605Z,1.50
2018-05-25T01:35:12.918Z,1.70
2018-05-25T01:37:40.357Z,1.13
2018-05-25T01:40:07.670Z,1.47
2018-05-25T01:42:35.042Z,1.90
2018-05-25T01:45:02.307Z,1.70
2018-05-25T01:47:29.600Z,1.33
2018-05-25T01:49:56.911Z,1.53
2018-05-25T01:52:24.211Z,1.40
2018-05-25T01:54:51.532Z,1.70
2018-05-25T01:57:18.834Z,1.43
2018-05-25T01:59:46.180Z,1.77
2018-05-25T02:02:13.584Z,1.67
2018-05-25T02:04:40.916Z,1.23
2018-05-25T02:07:08.295Z,1.93
2018-05-25T02:09:35.613Z,1.80
2018-05-25T02:12:02.896Z,2.07
2018-05-25T02:14:30.248Z,2.23
2018-05-25T02:16:57.604Z,1.70
2018-05-25T02:19:24.967Z,1.90
2018-05-25T02:21:52.322Z,2.13
2018-05-25T02:24:19.631Z,1.83
2018-05-25T02:26:46.924Z,1.90
2018-05-25T02:29:14.256Z,2.13
2018-05-25T02:31:41.540Z,2.50
2018-05-25T02:34:08.988Z,2.50
2018-05-25T02:36:36.271Z,2.67
2018-05-25T02:39:03.564Z,1.90
2018-05-25T02:41:30.892Z,2.57
2018-05-25T02:43:58.197Z,2.37
2018-05-25T02:46:25.538Z,2.50
2018-05-25T02:48:52.838Z,2.63
2018-05-25T02:51:20.168Z,3.00
2018-05-25T02:53:47.464Z,3.30
2018-05-25T02:56:14.780Z,3.40
2018-05-25T02:58:42.075Z,3.97
2018-05-25T03:01:09.408Z,4.40
2018-05-25T03:03:36.705Z,3.90
2018-05-25T03:06:04.031Z,3.17
2018-05-25T03:08:31.324Z,4.53
2018-05-25T03:10:58.644Z,3.30
2018-05-25T03:13:25.950Z,3.10
2018-05-25T03:15:53.283Z,3.47
2018-05-25T03:18:20.622Z,4.50
2018-05-25T03:20:48.005Z,3.20
2018-05-25T03:23:15.357Z,3.70
2018-05-25T03:25:42.648Z,3.50
2018-05-25T03:28:10.060Z,3.10
2018-05-25T03:30:37.416Z,4.03
2018-05-25T03:33:04.783Z,3.87
2018-05-25T03:35:32.075Z,3.70
2018-05-25T03:37:59.380Z,3.27
2018-05-25T03:40:26.662Z,3.80
2018-05-25T03:42:53.992Z,3.40
2018-05-25T03:45:21.274Z,3.73
2018-05-25T03:47:48.665Z,3.57
2018-05-25T03:50:15.949Z,3.00
2018-05-25T03:52:43.289Z,3.23
2018-05-25T03:55:10.584Z,3.37
2018-05-25T03:57:37.878Z,3.27
2018-05-25T04:00:11.159Z,3.93
2018-05-25T04:02:38.447Z,3.33
2018-05-25T04:05:05.770Z,3.40
2018-05-25T04:07:33.068Z,2.63
2018-05-25T04:10:00.417Z,2.70
2018-05-25T04:12:27.736Z,3.13
2018-05-25T04:14:55.048Z,3.90
2018-05-25T04:17:22.367Z,3.20
2018-05-25T04:19:49.799Z,3.10
2018-05-25T04:22:17.180Z,2.83
2018-05-25T04:24:44.531Z,3.30
2018-05-25T04:27:11.819Z,3.20
2018-05-25T04:29:39.130Z,2.77
2018-05-25T04:32:06.496Z,3.00
2018-05-25T04:34:33.844Z,3.43
2018-05-25T04:37:01.221Z,3.73
2018-05-25T04:39:28.550Z,3.40
2018-05-25T04:41:55.925Z,2.73
2018-05-25T04:44:23.222Z,2.90
2018-05-25T04:46:50.542Z,2.70
2018-05-25T04:49:17.838Z,3.50
2018-05-25T04:51:45.148Z,3.27
2018-05-25T04:54:12.483Z,2.47
2018-05-25T04:56:39.839Z,3.80
2018-05-25T04:59:07.196Z,3.30
2018-05-25T05:01:34.541Z,2.83
2018-05-25T05:04:01.847Z,2.60
2018-05-25T05:06:29.164Z,3.37
2018-05-25T05:08:56.508Z,4.23
2018-05-25T05:11:23.839Z,3.10
2018-05-25T05:13:51.140Z,3.33
2018-05-25T05:16:18.575Z,3.40
2018-05-25T05:18:45.872Z,3.83
2018-05-25T05:21:13.249Z,2.87
2018-05-25T05:23:40.899Z,2.97
2018-05-25T05:26:08.182Z,3.10
2018-05-25T05:28:35.539Z,3.23
2018-05-25T05:31:02.999Z,3.57
2018-05-25T05:33:30.359Z,3.30
2018-05-25T05:35:57.651Z,2.97
2018-05-25T05:38:25.071Z,3.90
2018-05-25T05:40:52.456Z,4.07
2018-05-25T05:43:19.778Z,2.90
2018-05-25T05:45:47.104Z,4.53
2018-05-25T05:48:14.415Z,3.53
2018-05-25T05:50:41.715Z,3.93
2018-05-25T05:53:09.035Z,4.00
2018-05-25T05:55:36.338Z,4.10
2018-05-25T05:58:03.658Z,3.67
2018-05-25T06:00:31.048Z,3.47
2018-05-25T06:02:58.418Z,4.00
2018-05-25T06:05:25.700Z,4.70
2018-05-25T06:07:53.114Z,4.13
2018-05-25T06:10:20.463Z,4.20
2018-05-25T06:12:47.823Z,4.03
2018-05-25T06:15:15.172Z,4.70
2018-05-25T06:17:42.484Z,4.77
2018-05-25T06:20:09.888Z,4.80
2018-05-25T06:22:37.168Z,4.20
2018-05-25T06:25:04.499Z,3.90
2018-05-25T06:27:31.820Z,4.40
2018-05-25T06:29:59.143Z,4.83
2018-05-25T06:32:26.427Z,4.50
2018-05-25T06:34:53.864Z,4.60
2018-05-25T06:37:21.236Z,4.40
2018-05-25T06:39:48.625Z,4.33
2018-05-25T06:42:15.944Z,3.50
2018-05-25T06:44:43.247Z,2.43
2018-05-25T06:47:10.579Z,2.53
2018-05-25T06:49:37.931Z,3.07
2018-05-25T06:52:05.278Z,2.10
2018-05-25T06:54:32.597Z,2.20
2018-05-25T06:56:59.988Z,3.03
2018-05-25T06:59:27.353Z,2.43
2018-05-25T07:01:54.639Z,2.10
2018-05-25T07:04:21.940Z,2.37
2018-05-25T07:06:49.247Z,2.50
2018-05-25T07:09:16.539Z,2.27
2018-05-25T07:11:43.863Z,2.60
2018-05-25T07:14:11.281Z,2.60
2018-05-25T07:16:38.640Z,2.10
2018-05-25T07:19:05.920Z,2.80
2018-05-25T07:21:33.242Z,2.17
2018-05-25T07:24:00.580Z,2.83
2018-05-25T07:26:27.939Z,2.30
2018-05-25T07:28:55.234Z,2.73
2018-05-25T07:31:22.659Z,3.30
2018-05-25T07:33:49.954Z,2.30
2018-05-25T07:36:17.356Z,2.83
2018-05-25T07:38:44.644Z,2.53
2018-05-25T07:41:11.992Z,2.77
2018-05-25T07:43:39.293Z,3.23
2018-05-25T07:46:06.687Z,3.40
2018-05-25T07:48:33.975Z,3.57
2018-05-25T07:51:01.285Z,3.07
2018-05-25T07:53:28.604Z,3.50
2018-05-25T07:55:57.016Z,3.20
2018-05-25T07:58:24.365Z,2.60
2018-05-25T08:00:51.663Z,3.17
2018-05-25T08:03:19.074Z,3.20
2018-05-25T08:05:46.401Z,2.40
2018-05-25T08:08:13.720Z,3.03
2018-05-25T08:10:41.032Z,2.83
2018-05-25T08:13:08.360Z,2.07
2018-05-25T08:15:35.652Z,2.67
2018-05-25T08:18:03.004Z,3.43
2018-05-25T08:20:30.300Z,3.17
2018-05-25T08:22:57.614Z,2.03
2018-05-25T08:25:24.908Z,2.60
2018-05-25T08:27:52.219Z,2.40
2018-05-25T08:30:19.593Z,3.03
2018-05-25T08:32:46.879Z,2.73
2018-05-25T08:35:14.191Z,2.30
2018-05-25T08:37:41.493Z,2.30
2018-05-25T08:40:08.810Z,2.37
2018-05-25T08:42:36.127Z,1.77
2018-05-25T08:45:03.434Z,2.70
2018-05-25T08:47:30.736Z,2.90
2018-05-25T08:49:58.064Z,2.53
2018-05-25T08:52:25.460Z,2.50
2018-05-25T08:54:52.797Z,2.93
2018-05-25T08:57:20.123Z,2.73
2018-05-25T08:59:47.517Z,3.20
2018-05-25T09:02:14.856Z,2.80
2018-05-25T09:04:42.362Z,2.53
2018-05-25T09:07:09.570Z,3.10
2018-05-25T09:09:36.911Z,3.00
2018-05-25T09:12:04.193Z,2.50
2018-05-25T09:14:31.500Z,2.77
2018-05-25T09:16:59.816Z,2.50
2018-05-25T09:19:27.176Z,3.23
2018-05-25T09:21:54.497Z,2.33
2018-05-25T09:24:21.812Z,2.83
2018-05-25T09:26:49.116Z,2.03
2018-05-25T09:29:16.408Z,2.77
2018-05-25T09:31:43.815Z,2.40
2018-05-25T09:34:11.121Z,2.90
2018-05-25T09:36:38.451Z,2.50
2018-05-25T09:39:05.736Z,2.60
2018-05-25T09:41:33.138Z,1.97
2018-05-25T09:44:00.491Z,2.30
2018-05-25T09:46:27.812Z,2.30
2018-05-25T09:48:55.147Z,1.83
2018-05-25T09:51:22.454Z,1.30
2018-05-25T09:53:49.761Z,1.93
2018-05-25T09:56:17.074Z,1.57
2018-05-25T09:58:44.372Z,2.07
2018-05-25T10:01:11.782Z,1.60
2018-05-25T10:03:39.114Z,1.70
2018-05-25T10:06:06.411Z,1.80
2018-05-25T10:08:33.848Z,1.63
2018-05-25T10:11:01.141Z,2.03
2018-05-25T10:13:28.460Z,2.20
2018-05-25T10:15:55.771Z,1.70
2018-05-25T10:18:23.084Z,1.50
2018-05-25T10:20:50.378Z,1.53
2018-05-25T10:23:17.695Z,1.10
2018-05-25T10:25:44.986Z,1.20
2018-05-25T10:28:12.359Z,1.30
2018-05-25T10:30:39.710Z,1.00
2018-05-25T10:33:07.108Z,1.20
2018-05-25T10:35:34.400Z,1.33
2018-05-25T10:38:01.788Z,0.80
2018-05-25T10:40:29.134Z,1.30
2018-05-25T10:42:56.454Z,1.67
2018-05-25T10:45:23.883Z,1.20
2018-05-25T10:47:51.185Z,0.93
2018-05-25T10:50:18.525Z,1.43
2018-05-25T10:52:45.812Z,1.40
2018-05-25T10:55:13.116Z,1.20
2018-05-25T10:57:40.483Z,0.90
2018-05-25T11:00:07.851Z,1.23
2018-05-25T11:02:35.187Z,1.67
2018-05-25T11:05:02.498Z,1.20
2018-05-25T11:07:29.797Z,1.67
2018-05-25T11:09:57.878Z,1.60
2018-05-25T11:12:25.086Z,1.60
2018-05-25T11:14:52.437Z,1.40
2018-05-25T11:17:19.715Z,1.47
2018-05-25T11:19:47.091Z,1.17
2018-05-25T11:22:14.366Z,0.80
2018-05-25T11:24:41.665Z,1.10
2018-05-25T11:27:08.936Z,1.20
2018-05-25T11:29:36.297Z,1.20
2018-05-25T11:32:03.604Z,1.50
2018-05-25T11:34:30.880Z,1.17
2018-05-25T11:36:58.183Z,1.30
2018-05-25T11:39:25.550Z,1.53
2018-05-25T11:41:52.814Z,1.23
2018-05-25T11:44:20.103Z,1.13
2018-05-25T11:46:47.428Z,1.27
2018-05-25T11:49:14.690Z,1.37
2018-05-25T11:51:41.996Z,0.70
2018-05-25T11:54:09.287Z,0.90
2018-05-25T11:56:36.591Z,0.60
2018-05-25T11:59:03.859Z,0.60
2018-05-25T12:01:31.184Z,0.87
2018-05-25T12:03:58.537Z,0.70
2018-05-25T12:06:25.838Z,0.93
2018-05-25T12:08:53.130Z,0.73
2018-05-25T12:11:20.412Z,1.20
2018-05-25T12:13:47.731Z,0.90
2018-05-25T12:16:15.031Z,0.87
2018-05-25T12:18:42.339Z,1.00
2018-05-25T12:21:09.605Z,0.90
2018-05-25T12:23:36.977Z,0.77
2018-05-25T12:26:04.328Z,0.35
2018-05-25T12:28:31.774Z,0.57
2018-05-25T12:30:59.040Z,0.82
2018-05-25T12:33:26.393Z,0.43
2018-05-25T12:35:53.697Z,0.57
2018-05-25T12:38:21.098Z,0.70
2018-05-25T12:40:48.444Z,0.52
2018-05-25T12:43:15.804Z,0.50
2018-05-25T12:45:43.104Z,0.30
2018-05-25T12:48:10.520Z,0.30
2018-05-25T12:50:37.807Z,0.37
2018-05-25T12:53:05.087Z,0.40
2018-05-25T12:55:32.477Z,0.40
2018-05-25T12:57:59.752Z,0.50
2018-05-25T13:00:27.060Z,0.50
2018-05-25T13:02:54.435Z,0.47
2018-05-25T13:05:21.781Z,0.45
2018-05-25T13:07:49.072Z,0.45
2018-05-25T13:10:16.379Z,0.35
2018-05-25T13:12:43.747Z,0.40
2018-05-25T13:15:11.064Z,0.40
2018-05-25T13:17:38.328Z,0.28
2018-05-25T13:20:05.712Z,0.28
2018-05-25T13:22:33.072Z,0.40
2018-05-25T13:25:00.383Z,0.30
2018-05-25T13:27:27.663Z,0.40
2018-05-25T13:29:55.017Z,0.30
2018-05-25T13:32:22.380Z,0.43
2018-05-25T13:34:49.645Z,0.37
2018-05-25T13:37:16.990Z,0.30
2018-05-25T13:39:44.339Z,0.20
2018-05-25T13:42:11.687Z,0.35
2018-05-25T13:44:38.959Z,0.32
2018-05-25T13:47:06.273Z,0.40
2018-05-25T13:49:33.552Z,0.30
2018-05-25T13:52:01.002Z,0.30
2018-05-25T13:54:28.284Z,0.50
2018-05-25T13:56:55.602Z,0.50
2018-05-25T13:59:22.883Z,0.37
2018-05-25T14:01:50.219Z,0.50
2018-05-25T14:04:17.568Z,0.68
2018-05-25T14:06:44.926Z,0.30
2018-05-25T14:09:12.196Z,0.32
2018-05-25T14:11:39.508Z,0.90
2018-05-25T14:14:06.784Z,0.50
2018-05-25T14:16:34.083Z,0.45
2018-05-25T14:19:01.354Z,0.37
2018-05-25T14:21:28.741Z,0.32
2018-05-25T14:23:56.109Z,0.40
2018-05-25T14:26:23.379Z,0.30
2018-05-25T14:28:50.708Z,0.30
2018-05-25T14:31:18.060Z,0.52
2018-05-25T14:33:45.413Z,0.43
2018-05-25T14:36:12.771Z,0.50
2018-05-25T14:38:40.128Z,0.20
2018-05-25T14:41:07.579Z,0.50
2018-05-25T14:43:34.935Z,0.40
2018-05-25T14:46:02.488Z,1.02
2018-05-25T14:48:29.856Z,0.60
2018-05-25T14:50:57.143Z,1.10
2018-05-25T14:53:24.432Z,0.60
2018-05-25T14:55:51.724Z,0.43
2018-05-25T14:58:19.015Z,0.88
2018-05-25T15:00:46.305Z,2.08
2018-05-25T15:03:13.765Z,1.95
2018-05-25T15:05:41.135Z,1.70
2018-05-25T15:08:08.481Z,2.60
2018-05-25T15:10:35.764Z,2.70
2018-05-25T15:13:03.056Z,2.97
2018-05-25T15:15:30.447Z,3.53
2018-05-25T15:17:57.795Z,3.87
2018-05-25T15:20:25.083Z,3.70
2018-05-25T15:22:52.416Z,3.17
2018-05-25T15:25:19.714Z,3.40
2018-05-25T15:27:46.988Z,3.05
2018-05-25T15:30:14.380Z,2.37
2018-05-25T15:32:41.919Z,2.17
2018-05-25T15:35:09.067Z,2.22
2018-05-25T15:37:36.433Z,1.48
2018-05-25T15:40:03.734Z,1.80
2018-05-25T15:42:31.133Z,1.30
2018-05-25T15:44:58.435Z,1.60
2018-05-25T15:47:25.732Z,1.60
2018-05-25T15:49:53.092Z,1.42
2018-05-25T15:52:20.441Z,1.42
2018-05-25T15:54:47.748Z,1.37
2018-05-25T15:57:15.029Z,1.42
2018-05-25T15:59:42.344Z,1.58
2018-05-25T16:02:09.669Z,1.25
2018-05-25T16:04:36.941Z,1.37
2018-05-25T16:07:04.265Z,1.17
2018-05-25T16:09:31.619Z,1.30
2018-05-25T16:11:58.971Z,1.20
2018-05-25T16:14:26.259Z,1.25
2018-05-25T16:16:53.575Z,1.30
2018-05-25T16:19:20.864Z,0.73
2018-05-25T16:21:48.204Z,0.93
2018-05-25T16:24:15.539Z,0.90
2018-05-25T16:26:42.851Z,0.80
2018-05-25T16:29:10.125Z,0.90
2018-05-25T16:31:37.501Z,1.35
2018-05-25T16:34:04.789Z,1.50
2018-05-25T16:36:32.092Z,1.20
2018-05-25T16:38:59.454Z,1.23
2018-05-25T16:41:26.748Z,1.00
2018-05-25T16:43:54.047Z,1.33
2018-05-25T16:46:21.347Z,1.20
2018-05-25T16:48:48.667Z,0.88
2018-05-25T16:51:15.946Z,1.50
2018-05-25T16:53:43.283Z,1.67
2018-05-25T16:56:10.564Z,1.30
2018-05-25T16:58:37.867Z,1.50
2018-05-25T17:01:05.251Z,1.98
2018-05-25T17:03:32.593Z,1.40
2018-05-25T17:05:59.994Z,1.52
2018-05-25T17:08:27.256Z,1.00
2018-05-25T17:10:54.540Z,1.40
2018-05-25T17:13:21.836Z,1.50
2018-05-25T17:15:49.116Z,1.40
2018-05-25T17:18:16.416Z,1.87
2018-05-25T17:20:43.691Z,1.20
2018-05-25T17:23:11.027Z,1.80
2018-05-25T17:25:38.311Z,1.87
2018-05-25T17:28:05.634Z,1.20
2018-05-25T17:30:32.949Z,2.23
2018-05-25T17:33:00.228Z,2.30
2018-05-25T17:35:27.538Z,2.40
2018-05-25T17:37:54.811Z,1.70
2018-05-25T17:40:22.111Z,1.70
2018-05-25T17:42:49.408Z,1.53
2018-05-25T17:45:16.696Z,1.80
2018-05-25T17:47:44.051Z,1.33
2018-05-25T17:50:11.371Z,1.20
2018-05-25T17:52:38.631Z,1.20
2018-05-25T17:55:05.935Z,1.43
2018-05-25T17:57:33.361Z,1.27
2018-05-25T18:00:00.715Z,1.47
2018-05-25T18:02:28.085Z,1.70
2018-05-25T18:04:55.376Z,1.80
2018-05-25T18:07:22.666Z,1.20
2018-05-25T18:09:50.032Z,1.07
2018-05-25T18:12:17.299Z,1.70
2018-05-25T18:14:44.747Z,1.10
2018-05-25T18:17:12.916Z,1.70
2018-05-25T18:19:40.373Z,2.00
2018-05-25T18:22:07.655Z,1.37
2018-05-25T18:24:34.947Z,1.87
2018-05-25T18:27:02.344Z,1.80
2018-05-25T18:29:29.644Z,1.27
2018-05-25T18:31:56.936Z,2.10
2018-05-25T18:34:24.219Z,1.50
2018-05-25T18:36:51.528Z,0.97
2018-05-25T18:39:19.818Z,1.70
2018-05-25T18:41:47.178Z,1.40
2018-05-25T18:44:14.450Z,1.30
2018-05-25T18:46:41.748Z,1.60
2018-05-25T18:49:09.022Z,1.37
2018-05-25T18:51:36.339Z,1.60
2018-05-25T18:54:09.446Z,1.80
2018-05-25T18:56:36.831Z,1.80
2018-05-25T18:59:04.139Z,1.60
2018-05-25T19:01:31.455Z,1.97
2018-05-25T19:03:58.752Z,1.67
2018-05-25T19:06:26.028Z,1.50
2018-05-25T19:08:53.412Z,2.20
2018-05-25T19:11:20.688Z,1.40
2018-05-25T19:13:47.990Z,1.33
2018-05-25T19:16:15.281Z,1.93
2018-05-25T19:18:42.611Z,1.50
2018-05-25T19:21:09.900Z,1.77
2018-05-25T19:23:37.215Z,1.90
2018-05-25T19:26:04.516Z,1.87
2018-05-25T19:28:31.828Z,1.50
2018-05-25T19:30:59.107Z,2.30
2018-05-25T19:33:26.403Z,1.57
2018-05-25T19:35:53.798Z,1.63
2018-05-25T19:38:21.147Z,1.67
2018-05-25T19:40:49.250Z,2.17
2018-05-25T19:43:16.539Z,2.00
2018-05-25T19:45:43.861Z,2.33
2018-05-25T19:48:11.125Z,1.83
2018-05-25T19:50:38.540Z,1.80
2018-05-25T19:53:05.816Z,3.03
2018-05-25T19:55:33.128Z,2.33
2018-05-25T19:58:00.499Z,2.03
2018-05-25T20:00:27.837Z,2.33
2018-05-25T20:02:55.200Z,2.13
2018-05-25T20:05:22.500Z,2.70
2018-05-25T20:07:49.776Z,2.90
2018-05-25T20:10:17.072Z,2.60
2018-05-25T20:12:44.344Z,2.50
2018-05-25T20:15:11.640Z,2.23
2018-05-25T20:17:39.019Z,1.90
2018-05-25T20:20:06.306Z,2.00
2018-05-25T20:22:33.589Z,1.73
2018-05-25T20:25:00.852Z,2.10
2018-05-25T20:27:28.162Z,1.70
2018-05-25T20:29:55.480Z,22.03
2018-05-25T20:32:22.843Z,15.33
2018-05-25T20:34:50.122Z,2.43
2018-05-25T20:37:17.429Z,2.07
2018-05-25T20:39:44.797Z,2.70
2018-05-25T20:42:12.156Z,2.70
2018-05-25T20:44:39.428Z,2.77
2018-05-25T20:47:06.760Z,2.50
2018-05-25T20:49:34.059Z,2.07
2018-05-25T20:52:01.363Z,2.50
2018-05-25T20:54:28.634Z,2.23
2018-05-25T20:56:55.966Z,2.03
2018-05-25T20:59:23.248Z,2.30
2018-05-25T21:01:50.554Z,2.20
2018-05-25T21:04:17.831Z,2.70
2018-05-25T21:06:45.127Z,2.60
2018-05-25T21:09:12.399Z,3.40
2018-05-25T21:11:39.711Z,3.03
2018-05-25T21:14:06.984Z,2.57
2018-05-25T21:16:34.392Z,2.83
2018-05-25T21:19:01.668Z,2.83
2018-05-25T21:21:28.944Z,3.40
2018-05-25T21:23:56.245Z,2.80
2018-05-25T21:26:23.616Z,2.93
2018-05-25T21:28:50.961Z,2.93
2018-05-25T21:31:18.241Z,2.97
2018-05-25T21:33:45.536Z,3.57
2018-05-25T21:36:12.920Z,2.60
2018-05-25T21:38:40.263Z,2.50
2018-05-25T21:41:07.547Z,3.40
2018-05-25T21:43:34.823Z,2.80
2018-05-25T21:46:02.099Z,3.23
2018-05-25T21:48:29.400Z,2.87
2018-05-25T21:50:56.679Z,3.10
2018-05-25T21:53:23.987Z,2.30
2018-05-25T21:55:51.343Z,2.60
2018-05-25T21:58:18.650Z,3.23
2018-05-25T22:00:45.920Z,2.93
2018-05-25T22:03:13.302Z,4.10
2018-05-25T22:05:40.675Z,2.73
2018-05-25T22:08:07.943Z,2.80
2018-05-25T22:10:35.255Z,2.63
2018-05-25T22:13:02.525Z,2.97
2018-05-25T22:15:29.836Z,2.37
2018-05-25T22:17:57.136Z,2.80
2018-05-25T22:20:24.444Z,3.40
2018-05-25T22:22:51.727Z,2.90
2018-05-25T22:25:19.019Z,3.30
2018-05-25T22:27:46.279Z,2.60
2018-05-25T22:30:13.696Z,2.83
2018-05-25T22:32:40.970Z,2.60
2018-05-25T22:35:08.303Z,3.70
2018-05-25T22:37:35.577Z,3.40
2018-05-25T22:40:02.875Z,3.47
2018-05-25T22:42:36.091Z,3.10
2018-05-25T22:45:09.166Z,2.83
2018-05-25T22:47:42.419Z,3.00
2018-05-25T22:50:15.531Z,2.80
2018-05-25T22:52:48.144Z,2.50
2018-05-25T22:55:15.463Z,3.40
2018-05-25T22:57:42.723Z,3.50
2018-05-25T23:00:10.027Z,2.70
2018-05-25T23:02:37.348Z,3.60
2018-05-25T23:05:04.652Z,3.30
2018-05-25T23:07:31.976Z,2.87
2018-05-25T23:09:59.288Z,3.47
2018-05-25T23:12:26.621Z,3.20
2018-05-25T23:14:53.923Z,4.07
2018-05-25T23:17:21.215Z,3.77
2018-05-25T23:19:48.487Z,2.80
2018-05-25T23:22:15.782Z,3.40
2018-05-25T23:24:43.060Z,3.20
2018-05-25T23:27:10.352Z,3.30
2018-05-25T23:29:37.648Z,3.50
2018-05-25T23:32:05.848Z,3.00
2018-05-25T23:34:33.210Z,3.47
2018-05-25T23:37:00.459Z,3.37
2018-05-25T23:39:27.773Z,3.47
2018-05-25T23:41:55.089Z,2.87
2018-05-25T23:44:22.360Z,2.60
2018-05-25T23:46:49.736Z,2.80
2018-05-25T23:49:17.036Z,3.10
2018-05-25T23:51:44.345Z,3.20
2018-05-25T23:54:11.679Z,3.53
2018-05-25T23:56:39.043Z,3.10
2018-05-25T23:59:06.341Z,3.80
